Terminal Aerodrome Forecast
Issued by NWS Charleston, WV

Current Version | Previous Version | Graphics & Text | Print | Product List | Glossary On
Versions: 1 2 3 4 5 6 7 8 9 10 11 12 13 14 15 16 17 18 19 20
000
FTUS41 KRLX 270500 RRA
TAFPKB
TAF
KPKB 270544Z 2706/2806 34006KT P6SM BKN035
     FM270700 35006KT P6SM SCT110
     FM270900 35005KT P6SM SKC
     FM271700 30006KT P6SM SCT035
     FM280000 00000KT P6SM SCT250=

USA.gov is the U.S. government's official web portal to all federal, state and local government web resources and services.